Chillagoe Airport


Codes: YCGO/LLG
Name: Chillagoe Airport
City:
Country: Australia
Elevation: 1110 ft.
Wikipedia:

Photos at Chillagoe Airport


   Photos courtesy of SpottingLog. You can add your own sightings and photos by signing up for a free trial today.



No photos found.

Weather at Chillagoe Airport


Time (UTC)DescriptionTempratureWindCloud coverageVisibilityPressureHumidity
25-Jun-2024 21:00Overcast Clouds22°C4 mph, SE99%10000m1016hPa86%
26-Jun-2024 00:00Overcast Clouds24°C9 mph, E98%10000m1016hPa78%
26-Jun-2024 03:00Light Rain26°C13 mph, NE88%10000m1015hPa66%
26-Jun-2024 06:00Light Rain28°C13 mph, NE80%10000m1013hPa59%
26-Jun-2024 09:00Scattered Clouds22°C7 mph, E34%10000m1015hPa83%
26-Jun-2024 12:00Few Clouds20°C4 mph, SE21%10000m1016hPa95%
26-Jun-2024 15:00Scattered Clouds19°C4 mph, SE35%10000m1016hPa96%
26-Jun-2024 18:00Broken Clouds20°C4 mph, SE54%10000m1015hPa94%
26-Jun-2024 21:00Few Clouds19°C4 mph, SE20%10000m1016hPa96%
27-Jun-2024 00:00Scattered Clouds26°C9 mph, E42%10000m1017hPa63%
27-Jun-2024 03:00Broken Clouds31°C9 mph, E69%10000m1014hPa47%
27-Jun-2024 06:00Broken Clouds28°C7 mph, NE81%10000m1012hPa54%
27-Jun-2024 09:00Overcast Clouds25°C9 mph, NE98%10000m1014hPa69%
27-Jun-2024 12:00Overcast Clouds22°C7 mph, E94%10000m1016hPa82%
27-Jun-2024 15:00Overcast Clouds20°C7 mph, E97%10000m1015hPa91%
27-Jun-2024 18:00Overcast Clouds20°C7 mph, E86%10000m1015hPa92%
27-Jun-2024 21:00Broken Clouds21°C9 mph, E54%10000m1016hPa87%
28-Jun-2024 00:00Scattered Clouds27°C13 mph, E33%10000m1017hPa58%
28-Jun-2024 03:00Few Clouds31°C11 mph, E13%10000m1014hPa45%
28-Jun-2024 06:00Scattered Clouds30°C9 mph, E25%10000m1013hPa44%
28-Jun-2024 09:00Broken Clouds24°C11 mph, E76%10000m1016hPa66%
28-Jun-2024 12:00Scattered Clouds20°C7 mph, E40%10000m1017hPa83%
28-Jun-2024 15:00Clear Sky19°C7 mph, E2%10000m1016hPa91%
28-Jun-2024 18:00Clear Sky19°C7 mph, E4%10000m1016hPa89%
28-Jun-2024 21:00Clear Sky19°C7 mph, E6%10000m1017hPa87%
29-Jun-2024 00:00Clear Sky27°C13 mph, E4%10000m1017hPa55%
29-Jun-2024 03:00Clear Sky31°C11 mph, E1%10000m1014hPa39%
29-Jun-2024 06:00Clear Sky31°C11 mph, E6%10000m1013hPa40%
29-Jun-2024 09:00Few Clouds23°C13 mph, E23%10000m1015hPa68%
29-Jun-2024 12:00Few Clouds20°C9 mph, E13%10000m1017hPa86%
29-Jun-2024 15:00Clear Sky19°C7 mph, E8%10000m1016hPa90%
29-Jun-2024 18:00Clear Sky17°C7 mph, E7%10000m1016hPa95%
29-Jun-2024 21:00Scattered Clouds18°C7 mph, SE49%10000m1017hPa90%
30-Jun-2024 00:00Scattered Clouds26°C11 mph, E34%10000m1017hPa54%
30-Jun-2024 03:00Broken Clouds31°C11 mph, E51%10000m1013hPa36%
30-Jun-2024 06:00Scattered Clouds31°C11 mph, NE33%10000m1011hPa34%
30-Jun-2024 09:00Clear Sky23°C13 mph, E0%10000m1014hPa63%
30-Jun-2024 12:00Clear Sky20°C11 mph, E1%10000m1016hPa77%
30-Jun-2024 15:00Clear Sky18°C9 mph, E8%10000m1016hPa86%
30-Jun-2024 18:00Scattered Clouds17°C7 mph, E37%10000m1015hPa92%